Aérodrome :
LOGIN :

S'inscrire | Disclaimer

   EN    FR    IT 

 










Légende :    VFR   VFR Marginal   IFR   IFR Intensif   IFR Très Intensif
Visi : 
Plafond : 
>= 8 km
>= 3000ft
5 à 8 km
1000 à 3000 ft
1500m à 5 km
500 à 1000 ft
800 à 1500m
200 à 500 ft
< 800m
< 200 ft
Symboles :   Orages  Brouillard  Fortes neiges  Fortes précipitations  Vent > 20 kt
SIGMETs :   Divers  Orages  Givrage  Turbulence  Onde Orograph.  Cendres Volcan.






- Altitude de l'aérodrome : 74 ft
- Code IATA : EIN


EHEH - Eindhoven

DERNIER METAR :
  • 122155Z AUTO 03008KT 9999 OVC250 14/09 Q1026 BLU

METARs EXPIRÉS :
  • 122125Z AUTO 03007KT 360V060 9999 OVC270 14/10 Q1026 BLU
  • 122055Z AUTO 36006KT 330V050 9999 OVC320 15/10 Q1026 BLU
  • 122025Z AUTO 36003KT 9999 OVC270 16/10 Q1026 BLU NOSIG
  • 121955Z AUTO 36004KT 9999 OVC280 16/10 Q1026 BLU NOSIG
  • 121925Z AUTO 01005KT 9999 OVC270 17/10 Q1026 BLU NOSIG
  • 121855Z AUTO 01006KT 9999 OVC250 19/09 Q1026 BLU NOSIG

TAF TAF EHEH
Valide du 12 à 18h jusqu'au 14 à 00h UTC


121717Z 1218/1324 01006KT CAVOK
TEMPO 1301/1305 4500 BR MIFG
PROB30
TEMPO 1303/1305 1500 BCFG
BECMG 1305/1308 VRB03KT
BECMG 1316/1318 32007KT
TEMPO 1321/1324 VRB03KT



MET'MAP, la Météo Aéronautique d'un coup d'oeil ! - Copyright ORBIFLY Décembre 2007 - Disclaimer

ORBIFLY MET'MAP TEAM :

Programmation & Développement : Alexandra Zaïnal
Sur une idée originale de : Baudouin d'Aumeries
Assistance à la programmation : Marc-Olivier Méhu
Soutien technique & logistique : Manuel Goepfert

Contact : metmap@orbifly.com




SOURCES & CREDITS :

   NOAA